sensor_id;sensor_type;location;lat;lon;timestamp;P1;durP1;ratioP1;P2;durP2;ratioP2
68310;SDS011;55157;51.036;17.058;2022-08-19T00:01:10;11.88;;;8.60;;
68310;SDS011;55157;51.036;17.058;2022-08-19T00:03:36;16.98;;;8.07;;
68310;SDS011;55157;51.036;17.058;2022-08-19T00:06:02;17.08;;;7.80;;
68310;SDS011;55157;51.036;17.058;2022-08-19T00:08:27;13.98;;;8.10;;
68310;SDS011;55157;51.036;17.058;2022-08-19T00:10:52;12.98;;;7.70;;
68310;SDS011;55157;51.036;17.058;2022-08-19T00:13:18;13.13;;;7.68;;
68310;SDS011;55157;51.036;17.058;2022-08-19T00:15:44;11.68;;;7.80;;
68310;SDS011;55157;51.036;17.058;2022-08-19T00:18:10;15.23;;;8.55;;
68310;SDS011;55157;51.036;17.058;2022-08-19T00:20:35;17.30;;;7.60;;
68310;SDS011;55157;51.036;17.058;2022-08-19T00:23:00;11.27;;;7.53;;
68310;SDS011;55157;51.036;17.058;2022-08-19T00:25:26;11.60;;;7.82;;
68310;SDS011;55157;51.036;17.058;2022-08-19T00:27:51;12.73;;;7.97;;
68310;SDS011;55157;51.036;17.058;2022-08-19T00:30:16;11.82;;;7.25;;
68310;SDS011;55157;51.036;17.058;2022-08-19T00:32:43;14.38;;;6.72;;
68310;SDS011;55157;51.036;17.058;2022-08-19T00:35:08;11.43;;;7.50;;
68310;SDS011;55157;51.036;17.058;2022-08-19T00:37:34;10.65;;;7.65;;
68310;SDS011;55157;51.036;17.058;2022-08-19T00:39:59;12.88;;;7.32;;
68310;SDS011;55157;51.036;17.058;2022-08-19T00:42:24;15.70;;;7.28;;
68310;SDS011;55157;51.036;17.058;2022-08-19T00:44:49;12.55;;;8.15;;
68310;SDS011;55157;51.036;17.058;2022-08-19T00:47:15;14.43;;;8.35;;
68310;SDS011;55157;51.036;17.058;2022-08-19T00:49:43;14.32;;;7.25;;
68310;SDS011;55157;51.036;17.058;2022-08-19T00:52:11;21.23;;;7.43;;
68310;SDS011;55157;51.036;17.058;2022-08-19T00:54:38;11.13;;;7.65;;
68310;SDS011;55157;51.036;17.058;2022-08-19T00:57:04;15.05;;;8.40;;
68310;SDS011;55157;51.036;17.058;2022-08-19T00:59:30;19.17;;;8.77;;
68310;SDS011;55157;51.036;17.058;2022-08-19T01:01:55;12.10;;;8.93;;
68310;SDS011;55157;51.036;17.058;2022-08-19T01:04:21;18.98;;;8.55;;
68310;SDS011;55157;51.036;17.058;2022-08-19T01:06:48;17.00;;;8.90;;
68310;SDS011;55157;51.036;17.058;2022-08-19T01:09:13;16.27;;;8.70;;
68310;SDS011;55157;51.036;17.058;2022-08-19T01:11:39;19.92;;;9.10;;
68310;SDS011;55157;51.036;17.058;2022-08-19T01:14:06;11.65;;;8.48;;
68310;SDS011;55157;51.036;17.058;2022-08-19T01:16:31;11.57;;;8.30;;
68310;SDS011;55157;51.036;17.058;2022-08-19T01:18:58;13.18;;;7.90;;
68310;SDS011;55157;51.036;17.058;2022-08-19T01:21:24;12.30;;;8.23;;
68310;SDS011;55157;51.036;17.058;2022-08-19T01:23:53;13.15;;;7.68;;
68310;SDS011;55157;51.036;17.058;2022-08-19T01:26:20;13.93;;;7.72;;
68310;SDS011;55157;51.036;17.058;2022-08-19T01:28:46;18.52;;;8.85;;
68310;SDS011;55157;51.036;17.058;2022-08-19T01:31:13;13.52;;;8.82;;
68310;SDS011;55157;51.036;17.058;2022-08-19T01:33:38;12.32;;;8.90;;
68310;SDS011;55157;51.036;17.058;2022-08-19T01:36:05;15.80;;;9.55;;
68310;SDS011;55157;51.036;17.058;2022-08-19T01:38:30;14.60;;;8.38;;
68310;SDS011;55157;51.036;17.058;2022-08-19T01:40:57;16.77;;;9.20;;
68310;SDS011;55157;51.036;17.058;2022-08-19T01:43:22;13.65;;;8.88;;
68310;SDS011;55157;51.036;17.058;2022-08-19T01:45:47;13.30;;;8.57;;
68310;SDS011;55157;51.036;17.058;2022-08-19T01:48:13;19.70;;;9.02;;
68310;SDS011;55157;51.036;17.058;2022-08-19T01:50:38;17.13;;;8.68;;
68310;SDS011;55157;51.036;17.058;2022-08-19T01:53:04;16.02;;;9.35;;
68310;SDS011;55157;51.036;17.058;2022-08-19T01:55:30;11.70;;;8.43;;
68310;SDS011;55157;51.036;17.058;2022-08-19T01:57:57;12.63;;;8.38;;
68310;SDS011;55157;51.036;17.058;2022-08-19T02:00:23;16.55;;;9.65;;
68310;SDS011;55157;51.036;17.058;2022-08-19T02:02:49;15.02;;;8.75;;
68310;SDS011;55157;51.036;17.058;2022-08-19T02:05:15;11.95;;;9.05;;
68310;SDS011;55157;51.036;17.058;2022-08-19T02:07:40;15.57;;;9.13;;
68310;SDS011;55157;51.036;17.058;2022-08-19T02:10:07;12.57;;;8.35;;
68310;SDS011;55157;51.036;17.058;2022-08-19T02:12:33;12.93;;;9.25;;
68310;SDS011;55157;51.036;17.058;2022-08-19T02:15:00;10.63;;;8.30;;
68310;SDS011;55157;51.036;17.058;2022-08-19T02:17:25;12.90;;;8.75;;
68310;SDS011;55157;51.036;17.058;2022-08-19T02:19:50;12.32;;;8.57;;
68310;SDS011;55157;51.036;17.058;2022-08-19T02:22:16;13.85;;;8.80;;
68310;SDS011;55157;51.036;17.058;2022-08-19T02:24:41;12.13;;;8.70;;
68310;SDS011;55157;51.036;17.058;2022-08-19T02:27:06;13.13;;;9.45;;
68310;SDS011;55157;51.036;17.058;2022-08-19T02:29:32;12.20;;;8.43;;
68310;SDS011;55157;51.036;17.058;2022-08-19T02:31:58;12.90;;;8.20;;
68310;SDS011;55157;51.036;17.058;2022-08-19T02:34:24;10.95;;;8.10;;
68310;SDS011;55157;51.036;17.058;2022-08-19T02:36:49;11.05;;;8.18;;
68310;SDS011;55157;51.036;17.058;2022-08-19T02:39:14;13.52;;;8.75;;
68310;SDS011;55157;51.036;17.058;2022-08-19T02:41:40;16.27;;;9.82;;
68310;SDS011;55157;51.036;17.058;2022-08-19T02:44:05;10.68;;;8.07;;
68310;SDS011;55157;51.036;17.058;2022-08-19T02:46:31;11.82;;;8.15;;
68310;SDS011;55157;51.036;17.058;2022-08-19T02:49:00;15.70;;;9.55;;
68310;SDS011;55157;51.036;17.058;2022-08-19T02:51:26;11.07;;;8.80;;
68310;SDS011;55157;51.036;17.058;2022-08-19T02:53:52;12.30;;;9.60;;
68310;SDS011;55157;51.036;17.058;2022-08-19T02:56:17;13.23;;;8.93;;
68310;SDS011;55157;51.036;17.058;2022-08-19T02:58:43;13.68;;;9.32;;
68310;SDS011;55157;51.036;17.058;2022-08-19T03:01:08;17.65;;;9.05;;
68310;SDS011;55157;51.036;17.058;2022-08-19T03:03:34;17.67;;;9.05;;
68310;SDS011;55157;51.036;17.058;2022-08-19T03:06:05;15.77;;;9.10;;
68310;SDS011;55157;51.036;17.058;2022-08-19T03:08:31;10.88;;;8.30;;
68310;SDS011;55157;51.036;17.058;2022-08-19T03:10:56;17.92;;;8.93;;
68310;SDS011;55157;51.036;17.058;2022-08-19T03:13:21;10.88;;;8.48;;
68310;SDS011;55157;51.036;17.058;2022-08-19T03:15:47;12.50;;;9.77;;
68310;SDS011;55157;51.036;17.058;2022-08-19T03:18:13;14.60;;;8.82;;
68310;SDS011;55157;51.036;17.058;2022-08-19T03:20:42;13.38;;;9.35;;
68310;SDS011;55157;51.036;17.058;2022-08-19T03:23:09;14.48;;;9.07;;
68310;SDS011;55157;51.036;17.058;2022-08-19T03:25:37;15.57;;;9.13;;
68310;SDS011;55157;51.036;17.058;2022-08-19T03:28:02;15.90;;;9.70;;
68310;SDS011;55157;51.036;17.058;2022-08-19T03:30:28;16.33;;;9.15;;
68310;SDS011;55157;51.036;17.058;2022-08-19T03:32:53;10.85;;;8.98;;
68310;SDS011;55157;51.036;17.058;2022-08-19T03:35:19;15.85;;;11.35;;
68310;SDS011;55157;51.036;17.058;2022-08-19T03:37:44;19.13;;;9.70;;
68310;SDS011;55157;51.036;17.058;2022-08-19T03:40:11;13.55;;;8.57;;
68310;SDS011;55157;51.036;17.058;2022-08-19T03:42:36;15.05;;;10.15;;
68310;SDS011;55157;51.036;17.058;2022-08-19T03:45:01;16.33;;;10.48;;
68310;SDS011;55157;51.036;17.058;2022-08-19T03:47:27;14.35;;;10.18;;
68310;SDS011;55157;51.036;17.058;2022-08-19T03:49:52;16.00;;;10.43;;
68310;SDS011;55157;51.036;17.058;2022-08-19T03:52:17;14.55;;;10.60;;
68310;SDS011;55157;51.036;17.058;2022-08-19T03:54:43;16.65;;;11.18;;
68310;SDS011;55157;51.036;17.058;2022-08-19T03:57:09;17.27;;;11.07;;
68310;SDS011;55157;51.036;17.058;2022-08-19T03:59:35;13.45;;;9.73;;
68310;SDS011;55157;51.036;17.058;2022-08-19T04:02:02;18.25;;;11.52;;
68310;SDS011;55157;51.036;17.058;2022-08-19T04:04:28;13.05;;;10.15;;
68310;SDS011;55157;51.036;17.058;2022-08-19T04:06:53;16.80;;;11.38;;
68310;SDS011;55157;51.036;17.058;2022-08-19T04:09:18;21.90;;;12.50;;
68310;SDS011;55157;51.036;17.058;2022-08-19T04:11:45;16.00;;;11.23;;
68310;SDS011;55157;51.036;17.058;2022-08-19T04:14:13;18.02;;;11.80;;
68310;SDS011;55157;51.036;17.058;2022-08-19T04:16:39;17.70;;;11.00;;
68310;SDS011;55157;51.036;17.058;2022-08-19T04:19:04;22.35;;;11.35;;
68310;SDS011;55157;51.036;17.058;2022-08-19T04:21:30;21.48;;;11.82;;
68310;SDS011;55157;51.036;17.058;2022-08-19T04:23:56;18.45;;;12.13;;
68310;SDS011;55157;51.036;17.058;2022-08-19T04:26:22;19.63;;;11.38;;
68310;SDS011;55157;51.036;17.058;2022-08-19T04:28:48;20.48;;;11.55;;
68310;SDS011;55157;51.036;17.058;2022-08-19T04:31:15;16.15;;;11.63;;
68310;SDS011;55157;51.036;17.058;2022-08-19T04:33:41;16.98;;;12.90;;
68310;SDS011;55157;51.036;17.058;2022-08-19T04:36:07;23.08;;;12.35;;
68310;SDS011;55157;51.036;17.058;2022-08-19T04:38:32;15.98;;;13.63;;
68310;SDS011;55157;51.036;17.058;2022-08-19T04:40:58;18.42;;;11.90;;
68310;SDS011;55157;51.036;17.058;2022-08-19T04:43:23;21.25;;;12.82;;
68310;SDS011;55157;51.036;17.058;2022-08-19T04:45:48;28.83;;;13.75;;
68310;SDS011;55157;51.036;17.058;2022-08-19T04:48:15;23.35;;;12.63;;
68310;SDS011;55157;51.036;17.058;2022-08-19T04:50:42;17.70;;;12.80;;
68310;SDS011;55157;51.036;17.058;2022-08-19T04:53:07;18.15;;;11.88;;
68310;SDS011;55157;51.036;17.058;2022-08-19T04:55:32;19.45;;;11.57;;
68310;SDS011;55157;51.036;17.058;2022-08-19T04:57:58;22.05;;;13.75;;
68310;SDS011;55157;51.036;17.058;2022-08-19T05:00:23;18.42;;;11.70;;
68310;SDS011;55157;51.036;17.058;2022-08-19T05:02:49;19.23;;;12.65;;
68310;SDS011;55157;51.036;17.058;2022-08-19T05:05:16;19.10;;;12.43;;
68310;SDS011;55157;51.036;17.058;2022-08-19T05:07:41;19.58;;;13.48;;
68310;SDS011;55157;51.036;17.058;2022-08-19T05:10:06;18.25;;;12.75;;
68310;SDS011;55157;51.036;17.058;2022-08-19T05:12:32;20.67;;;12.40;;
68310;SDS011;55157;51.036;17.058;2022-08-19T05:14:58;17.05;;;11.98;;
68310;SDS011;55157;51.036;17.058;2022-08-19T05:17:23;22.40;;;12.25;;
68310;SDS011;55157;51.036;17.058;2022-08-19T05:19:49;26.63;;;12.65;;
68310;SDS011;55157;51.036;17.058;2022-08-19T05:22:15;18.83;;;13.00;;
68310;SDS011;55157;51.036;17.058;2022-08-19T05:24:41;23.13;;;14.10;;
68310;SDS011;55157;51.036;17.058;2022-08-19T05:27:06;19.95;;;13.70;;
68310;SDS011;55157;51.036;17.058;2022-08-19T05:29:32;17.52;;;12.02;;
68310;SDS011;55157;51.036;17.058;2022-08-19T05:31:57;25.17;;;13.23;;
68310;SDS011;55157;51.036;17.058;2022-08-19T05:34:24;16.38;;;12.43;;
68310;SDS011;55157;51.036;17.058;2022-08-19T05:36:50;26.05;;;13.80;;
68310;SDS011;55157;51.036;17.058;2022-08-19T05:39:17;27.23;;;12.75;;
68310;SDS011;55157;51.036;17.058;2022-08-19T05:41:43;18.55;;;12.82;;
68310;SDS011;55157;51.036;17.058;2022-08-19T05:44:09;20.95;;;13.88;;
68310;SDS011;55157;51.036;17.058;2022-08-19T05:46:34;18.08;;;13.05;;
68310;SDS011;55157;51.036;17.058;2022-08-19T05:48:59;23.83;;;13.27;;
68310;SDS011;55157;51.036;17.058;2022-08-19T05:51:25;23.27;;;14.45;;
68310;SDS011;55157;51.036;17.058;2022-08-19T05:53:50;23.70;;;12.85;;
68310;SDS011;55157;51.036;17.058;2022-08-19T05:56:17;21.38;;;13.13;;
68310;SDS011;55157;51.036;17.058;2022-08-19T05:58:42;20.77;;;13.40;;
68310;SDS011;55157;51.036;17.058;2022-08-19T06:01:09;22.70;;;13.10;;
68310;SDS011;55157;51.036;17.058;2022-08-19T06:03:35;21.33;;;13.73;;
68310;SDS011;55157;51.036;17.058;2022-08-19T06:06:01;18.40;;;13.10;;
68310;SDS011;55157;51.036;17.058;2022-08-19T06:08:26;23.67;;;13.85;;
68310;SDS011;55157;51.036;17.058;2022-08-19T06:10:52;20.65;;;14.85;;
68310;SDS011;55157;51.036;17.058;2022-08-19T06:13:19;18.98;;;12.73;;
68310;SDS011;55157;51.036;17.058;2022-08-19T06:15:44;23.60;;;13.77;;
68310;SDS011;55157;51.036;17.058;2022-08-19T06:18:09;23.55;;;14.43;;
68310;SDS011;55157;51.036;17.058;2022-08-19T06:20:35;18.02;;;12.63;;
68310;SDS011;55157;51.036;17.058;2022-08-19T06:23:00;19.02;;;13.70;;
68310;SDS011;55157;51.036;17.058;2022-08-19T06:25:25;22.42;;;13.90;;
68310;SDS011;55157;51.036;17.058;2022-08-19T06:27:51;27.65;;;13.98;;
68310;SDS011;55157;51.036;17.058;2022-08-19T06:30:17;21.25;;;13.02;;
68310;SDS011;55157;51.036;17.058;2022-08-19T06:32:43;15.32;;;12.23;;
68310;SDS011;55157;51.036;17.058;2022-08-19T06:35:08;18.90;;;12.18;;
68310;SDS011;55157;51.036;17.058;2022-08-19T06:37:33;22.20;;;13.07;;
68310;SDS011;55157;51.036;17.058;2022-08-19T06:39:59;23.10;;;12.85;;
68310;SDS011;55157;51.036;17.058;2022-08-19T06:42:24;19.75;;;11.88;;
68310;SDS011;55157;51.036;17.058;2022-08-19T06:44:50;19.90;;;12.50;;
68310;SDS011;55157;51.036;17.058;2022-08-19T06:47:19;15.57;;;11.10;;
68310;SDS011;55157;51.036;17.058;2022-08-19T06:49:45;18.23;;;12.05;;
68310;SDS011;55157;51.036;17.058;2022-08-19T06:52:10;22.27;;;11.52;;
68310;SDS011;55157;51.036;17.058;2022-08-19T06:54:36;15.85;;;11.45;;
68310;SDS011;55157;51.036;17.058;2022-08-19T06:57:01;15.85;;;11.48;;
68310;SDS011;55157;51.036;17.058;2022-08-19T06:59:26;20.02;;;11.10;;
68310;SDS011;55157;51.036;17.058;2022-08-19T07:01:52;20.48;;;9.93;;
68310;SDS011;55157;51.036;17.058;2022-08-19T07:04:20;18.05;;;9.63;;
68310;SDS011;55157;51.036;17.058;2022-08-19T07:06:46;18.65;;;9.13;;
68310;SDS011;55157;51.036;17.058;2022-08-19T07:09:12;19.75;;;9.95;;
68310;SDS011;55157;51.036;17.058;2022-08-19T07:11:38;16.20;;;8.05;;
68310;SDS011;55157;51.036;17.058;2022-08-19T07:14:03;12.85;;;8.18;;
68310;SDS011;55157;51.036;17.058;2022-08-19T07:16:28;18.50;;;7.93;;
68310;SDS011;55157;51.036;17.058;2022-08-19T07:18:54;17.38;;;8.35;;
68310;SDS011;55157;51.036;17.058;2022-08-19T07:21:21;11.50;;;7.93;;
68310;SDS011;55157;51.036;17.058;2022-08-19T07:23:47;18.67;;;8.30;;
68310;SDS011;55157;51.036;17.058;2022-08-19T07:26:13;25.15;;;7.85;;
68310;SDS011;55157;51.036;17.058;2022-08-19T07:28:39;23.55;;;8.43;;
68310;SDS011;55157;51.036;17.058;2022-08-19T07:31:05;18.83;;;7.95;;
68310;SDS011;55157;51.036;17.058;2022-08-19T07:33:30;19.65;;;8.88;;
68310;SDS011;55157;51.036;17.058;2022-08-19T07:35:56;20.42;;;7.93;;
68310;SDS011;55157;51.036;17.058;2022-08-19T07:38:23;20.98;;;7.47;;
68310;SDS011;55157;51.036;17.058;2022-08-19T07:40:48;12.27;;;7.50;;
68310;SDS011;55157;51.036;17.058;2022-08-19T07:43:14;23.13;;;6.88;;
68310;SDS011;55157;51.036;17.058;2022-08-19T07:45:39;13.63;;;6.88;;
68310;SDS011;55157;51.036;17.058;2022-08-19T07:48:05;14.02;;;7.00;;
68310;SDS011;55157;51.036;17.058;2022-08-19T07:50:30;17.40;;;6.80;;
68310;SDS011;55157;51.036;17.058;2022-08-19T07:52:55;24.17;;;8.00;;
68310;SDS011;55157;51.036;17.058;2022-08-19T07:55:23;11.65;;;6.50;;
68310;SDS011;55157;51.036;17.058;2022-08-19T07:57:48;24.13;;;6.70;;
68310;SDS011;55157;51.036;17.058;2022-08-19T08:00:14;18.98;;;6.68;;
68310;SDS011;55157;51.036;17.058;2022-08-19T08:02:39;15.60;;;6.30;;
68310;SDS011;55157;51.036;17.058;2022-08-19T08:05:05;9.60;;;5.75;;
68310;SDS011;55157;51.036;17.058;2022-08-19T08:07:30;9.38;;;5.72;;
68310;SDS011;55157;51.036;17.058;2022-08-19T08:09:56;18.98;;;6.82;;
68310;SDS011;55157;51.036;17.058;2022-08-19T08:12:24;13.82;;;7.20;;
68310;SDS011;55157;51.036;17.058;2022-08-19T08:14:50;15.48;;;7.60;;
68310;SDS011;55157;51.036;17.058;2022-08-19T08:17:17;18.42;;;6.57;;
68310;SDS011;55157;51.036;17.058;2022-08-19T08:19:43;19.33;;;6.07;;
68310;SDS011;55157;51.036;17.058;2022-08-19T08:22:10;9.85;;;6.60;;
68310;SDS011;55157;51.036;17.058;2022-08-19T08:24:36;9.65;;;5.72;;
68310;SDS011;55157;51.036;17.058;2022-08-19T08:27:01;10.85;;;5.65;;
68310;SDS011;55157;51.036;17.058;2022-08-19T08:29:28;14.30;;;6.10;;
68310;SDS011;55157;51.036;17.058;2022-08-19T08:31:54;15.75;;;6.82;;
68310;SDS011;55157;51.036;17.058;2022-08-19T08:34:19;16.50;;;6.10;;
68310;SDS011;55157;51.036;17.058;2022-08-19T08:36:45;21.83;;;6.28;;
68310;SDS011;55157;51.036;17.058;2022-08-19T08:39:11;13.05;;;6.07;;
68310;SDS011;55157;51.036;17.058;2022-08-19T08:41:37;15.35;;;6.70;;
68310;SDS011;55157;51.036;17.058;2022-08-19T08:44:05;14.05;;;6.32;;
68310;SDS011;55157;51.036;17.058;2022-08-19T08:46:33;13.68;;;6.47;;
68310;SDS011;55157;51.036;17.058;2022-08-19T08:49:01;10.45;;;5.97;;
68310;SDS011;55157;51.036;17.058;2022-08-19T08:51:29;11.70;;;6.20;;
68310;SDS011;55157;51.036;17.058;2022-08-19T08:53:57;18.48;;;6.78;;
68310;SDS011;55157;51.036;17.058;2022-08-19T08:56:22;14.57;;;5.75;;
68310;SDS011;55157;51.036;17.058;2022-08-19T08:58:50;13.35;;;5.85;;
68310;SDS011;55157;51.036;17.058;2022-08-19T09:01:16;14.80;;;6.40;;
68310;SDS011;55157;51.036;17.058;2022-08-19T09:03:43;13.45;;;6.60;;
68310;SDS011;55157;51.036;17.058;2022-08-19T09:06:11;12.90;;;6.70;;
68310;SDS011;55157;51.036;17.058;2022-08-19T09:08:40;41.25;;;6.63;;
68310;SDS011;55157;51.036;17.058;2022-08-19T09:11:08;15.32;;;6.85;;
68310;SDS011;55157;51.036;17.058;2022-08-19T09:13:35;10.68;;;5.38;;
68310;SDS011;55157;51.036;17.058;2022-08-19T09:16:05;12.05;;;5.22;;
68310;SDS011;55157;51.036;17.058;2022-08-19T09:18:38;11.95;;;5.80;;
68310;SDS011;55157;51.036;17.058;2022-08-19T09:21:04;8.88;;;5.05;;
68310;SDS011;55157;51.036;17.058;2022-08-19T09:23:30;12.65;;;5.25;;
68310;SDS011;55157;51.036;17.058;2022-08-19T09:25:55;16.98;;;5.90;;
68310;SDS011;55157;51.036;17.058;2022-08-19T09:28:20;13.18;;;5.40;;
68310;SDS011;55157;51.036;17.058;2022-08-19T09:30:46;18.93;;;5.80;;
68310;SDS011;55157;51.036;17.058;2022-08-19T09:33:11;17.83;;;5.65;;
68310;SDS011;55157;51.036;17.058;2022-08-19T09:35:36;9.75;;;4.40;;
68310;SDS011;55157;51.036;17.058;2022-08-19T09:38:03;10.60;;;5.03;;
68310;SDS011;55157;51.036;17.058;2022-08-19T09:40:28;18.38;;;5.55;;
68310;SDS011;55157;51.036;17.058;2022-08-19T09:42:54;11.20;;;5.40;;
68310;SDS011;55157;51.036;17.058;2022-08-19T09:45:20;20.52;;;6.50;;
68310;SDS011;55157;51.036;17.058;2022-08-19T09:47:45;10.80;;;5.25;;
68310;SDS011;55157;51.036;17.058;2022-08-19T09:50:11;11.07;;;5.18;;
68310;SDS011;55157;51.036;17.058;2022-08-19T09:52:37;16.30;;;5.65;;
68310;SDS011;55157;51.036;17.058;2022-08-19T09:55:04;11.52;;;5.05;;
68310;SDS011;55157;51.036;17.058;2022-08-19T09:57:29;12.70;;;5.78;;
68310;SDS011;55157;51.036;17.058;2022-08-19T09:59:55;21.13;;;5.30;;
68310;SDS011;55157;51.036;17.058;2022-08-19T10:02:20;13.32;;;5.53;;
68310;SDS011;55157;51.036;17.058;2022-08-19T10:04:45;12.93;;;5.30;;
68310;SDS011;55157;51.036;17.058;2022-08-19T10:07:11;19.00;;;5.20;;
68310;SDS011;55157;51.036;17.058;2022-08-19T10:09:36;7.73;;;4.50;;
68310;SDS011;55157;51.036;17.058;2022-08-19T10:12:03;18.92;;;5.55;;
68310;SDS011;55157;51.036;17.058;2022-08-19T10:14:29;14.25;;;4.93;;
68310;SDS011;55157;51.036;17.058;2022-08-19T10:16:54;15.07;;;5.20;;
68310;SDS011;55157;51.036;17.058;2022-08-19T10:19:19;7.13;;;4.00;;
68310;SDS011;55157;51.036;17.058;2022-08-19T10:21:44;14.17;;;4.57;;
68310;SDS011;55157;51.036;17.058;2022-08-19T10:24:10;5.83;;;3.87;;
68310;SDS011;55157;51.036;17.058;2022-08-19T10:26:39;10.03;;;3.90;;
68310;SDS011;55157;51.036;17.058;2022-08-19T10:29:07;4.75;;;4.15;;
68310;SDS011;55157;51.036;17.058;2022-08-19T10:31:32;11.10;;;3.92;;
68310;SDS011;55157;51.036;17.058;2022-08-19T10:33:58;18.63;;;4.85;;
68310;SDS011;55157;51.036;17.058;2022-08-19T10:36:24;7.20;;;3.70;;
68310;SDS011;55157;51.036;17.058;2022-08-19T10:38:50;9.32;;;3.13;;
68310;SDS011;55157;51.036;17.058;2022-08-19T10:41:17;10.80;;;4.03;;
68310;SDS011;55157;51.036;17.058;2022-08-19T10:43:43;9.13;;;4.00;;
68310;SDS011;55157;51.036;17.058;2022-08-19T10:46:11;8.65;;;3.95;;
68310;SDS011;55157;51.036;17.058;2022-08-19T10:48:37;5.80;;;4.13;;
68310;SDS011;55157;51.036;17.058;2022-08-19T10:51:02;11.10;;;3.43;;
68310;SDS011;55157;51.036;17.058;2022-08-19T10:53:27;6.20;;;4.18;;
68310;SDS011;55157;51.036;17.058;2022-08-19T10:55:52;7.70;;;4.17;;
68310;SDS011;55157;51.036;17.058;2022-08-19T10:58:18;7.43;;;3.80;;
68310;SDS011;55157;51.036;17.058;2022-08-19T11:00:50;8.57;;;4.60;;
68310;SDS011;55157;51.036;17.058;2022-08-19T11:03:17;12.05;;;5.20;;
68310;SDS011;55157;51.036;17.058;2022-08-19T11:05:42;8.88;;;4.20;;
68310;SDS011;55157;51.036;17.058;2022-08-19T11:08:07;8.20;;;3.67;;
68310;SDS011;55157;51.036;17.058;2022-08-19T11:10:33;6.53;;;2.95;;
68310;SDS011;55157;51.036;17.058;2022-08-19T11:12:58;11.53;;;3.00;;
68310;SDS011;55157;51.036;17.058;2022-08-19T11:15:23;7.63;;;2.73;;
68310;SDS011;55157;51.036;17.058;2022-08-19T11:17:49;4.70;;;2.30;;
68310;SDS011;55157;51.036;17.058;2022-08-19T11:20:17;12.25;;;2.90;;
68310;SDS011;55157;51.036;17.058;2022-08-19T11:22:42;11.73;;;2.95;;
68310;SDS011;55157;51.036;17.058;2022-08-19T11:25:08;9.30;;;2.53;;
68310;SDS011;55157;51.036;17.058;2022-08-19T11:27:33;6.75;;;2.15;;
68310;SDS011;55157;51.036;17.058;2022-08-19T11:30:02;12.88;;;2.35;;
68310;SDS011;55157;51.036;17.058;2022-08-19T11:32:27;7.63;;;1.80;;
68310;SDS011;55157;51.036;17.058;2022-08-19T11:34:52;5.60;;;2.13;;
68310;SDS011;55157;51.036;17.058;2022-08-19T11:37:19;18.93;;;2.70;;
68310;SDS011;55157;51.036;17.058;2022-08-19T11:39:44;5.50;;;2.30;;
68310;SDS011;55157;51.036;17.058;2022-08-19T11:42:10;11.77;;;2.80;;
68310;SDS011;55157;51.036;17.058;2022-08-19T11:44:35;23.27;;;3.13;;
68310;SDS011;55157;51.036;17.058;2022-08-19T11:47:00;9.67;;;2.37;;
68310;SDS011;55157;51.036;17.058;2022-08-19T11:49:25;8.03;;;2.63;;
68310;SDS011;55157;51.036;17.058;2022-08-19T11:51:51;9.67;;;2.80;;
68310;SDS011;55157;51.036;17.058;2022-08-19T11:54:17;9.40;;;2.30;;
68310;SDS011;55157;51.036;17.058;2022-08-19T11:56:43;7.03;;;2.63;;
68310;SDS011;55157;51.036;17.058;2022-08-19T11:59:08;6.10;;;2.13;;
68310;SDS011;55157;51.036;17.058;2022-08-19T12:01:33;6.50;;;2.80;;
68310;SDS011;55157;51.036;17.058;2022-08-19T12:03:59;13.57;;;2.90;;
68310;SDS011;55157;51.036;17.058;2022-08-19T12:06:25;6.30;;;2.55;;
68310;SDS011;55157;51.036;17.058;2022-08-19T12:08:51;5.15;;;2.30;;
68310;SDS011;55157;51.036;17.058;2022-08-19T12:11:18;13.50;;;2.40;;
68310;SDS011;55157;51.036;17.058;2022-08-19T12:13:43;7.18;;;2.50;;
68310;SDS011;55157;51.036;17.058;2022-08-19T12:16:09;5.60;;;2.08;;
68310;SDS011;55157;51.036;17.058;2022-08-19T12:18:34;9.98;;;2.40;;
68310;SDS011;55157;51.036;17.058;2022-08-19T12:21:00;9.87;;;2.00;;
68310;SDS011;55157;51.036;17.058;2022-08-19T12:23:25;12.53;;;2.50;;
68310;SDS011;55157;51.036;17.058;2022-08-19T12:25:50;12.10;;;3.10;;
68310;SDS011;55157;51.036;17.058;2022-08-19T12:28:17;8.17;;;2.20;;
68310;SDS011;55157;51.036;17.058;2022-08-19T12:30:42;9.05;;;2.20;;
68310;SDS011;55157;51.036;17.058;2022-08-19T12:33:08;38.20;;;4.07;;
68310;SDS011;55157;51.036;17.058;2022-08-19T12:35:33;11.93;;;2.97;;
68310;SDS011;55157;51.036;17.058;2022-08-19T12:37:58;13.63;;;2.83;;
68310;SDS011;55157;51.036;17.058;2022-08-19T12:40:23;10.53;;;2.80;;
68310;SDS011;55157;51.036;17.058;2022-08-19T12:42:49;10.00;;;2.83;;
68310;SDS011;55157;51.036;17.058;2022-08-19T12:45:16;13.97;;;2.80;;
68310;SDS011;55157;51.036;17.058;2022-08-19T12:47:41;8.73;;;2.88;;
68310;SDS011;55157;51.036;17.058;2022-08-19T12:50:06;5.30;;;2.23;;
68310;SDS011;55157;51.036;17.058;2022-08-19T12:52:32;7.07;;;2.50;;
68310;SDS011;55157;51.036;17.058;2022-08-19T12:54:57;8.03;;;2.23;;
68310;SDS011;55157;51.036;17.058;2022-08-19T12:57:23;5.70;;;2.65;;
68310;SDS011;55157;51.036;17.058;2022-08-19T12:59:51;22.85;;;2.60;;
68310;SDS011;55157;51.036;17.058;2022-08-19T13:02:18;8.25;;;2.70;;
68310;SDS011;55157;51.036;17.058;2022-08-19T13:04:43;4.68;;;2.33;;
68310;SDS011;55157;51.036;17.058;2022-08-19T13:07:08;10.33;;;2.33;;
68310;SDS011;55157;51.036;17.058;2022-08-19T13:09:34;11.77;;;3.77;;
68310;SDS011;55157;51.036;17.058;2022-08-19T13:11:59;9.02;;;3.28;;
68310;SDS011;55157;51.036;17.058;2022-08-19T13:14:24;10.93;;;3.40;;
68310;SDS011;55157;51.036;17.058;2022-08-19T13:16:49;7.73;;;2.53;;
68310;SDS011;55157;51.036;17.058;2022-08-19T13:19:16;10.23;;;2.70;;
68310;SDS011;55157;51.036;17.058;2022-08-19T13:21:41;9.77;;;2.45;;
68310;SDS011;55157;51.036;17.058;2022-08-19T13:24:06;8.93;;;2.83;;
68310;SDS011;55157;51.036;17.058;2022-08-19T13:26:32;8.53;;;2.80;;
68310;SDS011;55157;51.036;17.058;2022-08-19T13:28:57;17.33;;;3.03;;
68310;SDS011;55157;51.036;17.058;2022-08-19T13:31:23;17.13;;;3.63;;
68310;SDS011;55157;51.036;17.058;2022-08-19T13:33:48;9.80;;;2.67;;
68310;SDS011;55157;51.036;17.058;2022-08-19T13:36:15;8.73;;;3.07;;
68310;SDS011;55157;51.036;17.058;2022-08-19T13:38:40;15.73;;;4.72;;
68310;SDS011;55157;51.036;17.058;2022-08-19T13:41:06;14.33;;;3.00;;
68310;SDS011;55157;51.036;17.058;2022-08-19T13:43:31;17.70;;;5.90;;
68310;SDS011;55157;51.036;17.058;2022-08-19T13:45:56;9.07;;;3.88;;
68310;SDS011;55157;51.036;17.058;2022-08-19T13:48:22;20.87;;;4.23;;
68310;SDS011;55157;51.036;17.058;2022-08-19T13:50:47;10.65;;;3.90;;
68310;SDS011;55157;51.036;17.058;2022-08-19T13:53:14;10.83;;;3.37;;
68310;SDS011;55157;51.036;17.058;2022-08-19T13:55:41;13.00;;;3.30;;
68310;SDS011;55157;51.036;17.058;2022-08-19T13:58:06;14.80;;;2.90;;
68310;SDS011;55157;51.036;17.058;2022-08-19T14:00:33;16.08;;;4.68;;
68310;SDS011;55157;51.036;17.058;2022-08-19T14:02:58;26.52;;;13.77;;
68310;SDS011;55157;51.036;17.058;2022-08-19T14:05:24;14.77;;;4.05;;
68310;SDS011;55157;51.036;17.058;2022-08-19T14:07:50;18.55;;;11.25;;
68310;SDS011;55157;51.036;17.058;2022-08-19T14:10:16;18.37;;;3.90;;
68310;SDS011;55157;51.036;17.058;2022-08-19T14:12:42;30.00;;;15.52;;